Sandoval, Texas
Current Conditions -  °F | °C
As of 7:58 AM on Saturday 25 Oct 2014 (Local Time) from KGRK Reporting Station
Clear Clear  
Wind Chill: 60°   Ceiling: Unl
Heat Index: 60°   Visibility: 8mi
Dew Point: 57°   Wind: 7mph
Humidity: 89%   Direction: 160°SSE
Pressure: 30.15"   Gusts: NA
Location:  30.5793°N, 97.5096°W
Report Text: KGRK 251258Z AUTO 16006KT 8SM CLR 16/14 A3015 RMK AO2 SLP203 T01550137
Loading
Personal Weather Stations






























Interactive Weather Map
Tropical Storm Tracking
New forecast layout! Learn more

10-Day Weather Forecast

Advertisements
Track Severe Weather on mobile